createdAt,value
2023-08-22T00:00:55.861Z,19.90
2023-08-22T00:03:23.580Z,20.03
2023-08-22T00:05:51.270Z,19.82
2023-08-22T00:08:20.217Z,20.17
2023-08-22T00:10:47.877Z,20.35
2023-08-22T00:13:15.664Z,20.25
2023-08-22T00:15:43.323Z,19.99
2023-08-22T00:18:11.133Z,19.92
2023-08-22T00:20:39.588Z,19.66
2023-08-22T00:23:07.185Z,19.57
2023-08-22T00:25:36.147Z,19.65
2023-08-22T00:28:03.926Z,19.99
2023-08-22T00:30:31.595Z,20.22
2023-08-22T00:32:59.366Z,20.10
2023-08-22T00:35:29.765Z,19.69
2023-08-22T00:37:57.379Z,19.65
2023-08-22T00:40:25.012Z,19.92
2023-08-22T00:42:53.990Z,19.82
2023-08-22T00:45:21.584Z,19.48
2023-08-22T00:47:49.276Z,19.59
2023-08-22T00:50:18.118Z,19.58
2023-08-22T00:52:45.880Z,19.47
2023-08-22T00:55:14.628Z,19.30
2023-08-22T00:57:42.636Z,19.59
2023-08-22T01:00:12.453Z,19.48
2023-08-22T01:02:40.876Z,19.62
2023-08-22T01:05:10.246Z,19.56
2023-08-22T01:07:42.182Z,19.77
2023-08-22T01:10:14.113Z,19.39
2023-08-22T01:12:47.447Z,19.11
2023-08-22T01:15:22.379Z,19.16
2023-08-22T01:17:51.189Z,19.33
2023-08-22T01:20:19.317Z,19.19
2023-08-22T01:22:48.337Z,19.15
2023-08-22T01:25:16.198Z,19.16
2023-08-22T01:27:51.994Z,19.24
2023-08-22T01:30:25.373Z,19.16
2023-08-22T01:32:54.923Z,19.32
2023-08-22T01:35:24.551Z,19.20
2023-08-22T01:37:55.838Z,19.10
2023-08-22T01:40:25.614Z,19.13
2023-08-22T01:42:53.290Z,18.93
2023-08-22T01:45:20.931Z,18.97
2023-08-22T01:47:48.652Z,19.07
2023-08-22T01:50:16.702Z,19.03
2023-08-22T01:52:45.577Z,19.10
2023-08-22T01:55:15.636Z,18.91
2023-08-22T01:57:43.290Z,18.87
2023-08-22T02:00:11.790Z,18.92
2023-08-22T02:02:39.514Z,18.81
2023-08-22T02:05:09.894Z,18.97
2023-08-22T02:07:37.710Z,19.21
2023-08-22T02:10:06.116Z,19.26
2023-08-22T02:12:35.316Z,19.58
2023-08-22T02:15:03.398Z,19.58
2023-08-22T02:17:31.060Z,19.70
2023-08-22T02:19:58.687Z,19.92
2023-08-22T02:22:26.312Z,19.69
2023-08-22T02:24:54.084Z,19.72
2023-08-22T02:27:21.697Z,19.70
2023-08-22T02:29:50.725Z,19.76
2023-08-22T02:32:18.317Z,19.20
2023-08-22T02:34:46.389Z,19.69
2023-08-22T02:37:13.990Z,19.80
2023-08-22T02:39:41.722Z,19.54
2023-08-22T02:42:09.338Z,19.50
2023-08-22T02:44:36.976Z,19.64
2023-08-22T02:47:07.209Z,19.32
2023-08-22T02:49:34.860Z,19.50
2023-08-22T02:52:02.544Z,19.21
2023-08-22T02:54:30.162Z,19.50
2023-08-22T02:56:57.791Z,19.64
2023-08-22T02:59:25.412Z,19.34
2023-08-22T03:01:53.051Z,19.17
2023-08-22T03:04:22.052Z,19.22
2023-08-22T03:06:49.755Z,19.13
2023-08-22T03:09:17.525Z,19.05
2023-08-22T03:11:45.198Z,19.11
2023-08-22T03:14:12.817Z,18.95
2023-08-22T03:16:40.469Z,19.20
2023-08-22T03:19:08.092Z,18.85
2023-08-22T03:21:37.205Z,18.71
2023-08-22T03:24:05.276Z,18.98
2023-08-22T03:26:32.997Z,18.78
2023-08-22T03:29:00.650Z,18.55
2023-08-22T03:31:29.847Z,19.32
2023-08-22T03:33:57.429Z,19.03
2023-08-22T03:36:25.033Z,19.18
2023-08-22T03:38:54.448Z,19.32
2023-08-22T03:41:22.062Z,19.15
2023-08-22T03:43:49.809Z,19.32
2023-08-22T03:46:28.044Z,19.40
2023-08-22T03:49:04.017Z,18.82
2023-08-22T03:51:31.862Z,18.53
2023-08-22T03:54:00.823Z,19.19
2023-08-22T03:56:28.430Z,18.93
2023-08-22T03:58:56.177Z,18.82
2023-08-22T04:01:23.854Z,18.43
2023-08-22T04:03:52.405Z,18.15
2023-08-22T04:06:20.106Z,18.80
2023-08-22T04:08:47.735Z,18.67
2023-08-22T04:11:16.809Z,18.64
2023-08-22T04:13:44.442Z,18.86
2023-08-22T04:16:12.185Z,18.33
2023-08-22T04:18:40.109Z,18.59
2023-08-22T04:21:08.046Z,18.56
2023-08-22T04:23:35.779Z,18.26
2023-08-22T04:26:03.441Z,18.52
2023-08-22T04:28:34.182Z,18.46
2023-08-22T04:31:02.707Z,17.97
2023-08-22T04:33:31.520Z,18.43
2023-08-22T04:35:59.230Z,19.13
2023-08-22T04:38:26.858Z,18.90
2023-08-22T04:40:54.487Z,18.93
2023-08-22T04:43:22.194Z,18.58
2023-08-22T04:45:54.087Z,18.41
2023-08-22T04:48:22.265Z,18.92
2023-08-22T04:50:50.674Z,19.12
2023-08-22T04:53:18.323Z,18.42
2023-08-22T04:55:45.983Z,18.71
2023-08-22T04:58:13.609Z,19.10
2023-08-22T05:00:41.276Z,19.24
2023-08-22T05:03:10.279Z,19.24
2023-08-22T05:05:37.971Z,19.14
2023-08-22T05:08:07.223Z,19.24
2023-08-22T05:10:34.831Z,18.85
2023-08-22T05:13:02.423Z,19.10
2023-08-22T05:15:30.076Z,19.14
2023-08-22T05:17:56.752Z,19.57
2023-08-22T05:20:25.857Z,19.75
2023-08-22T05:22:53.699Z,19.28
2023-08-22T05:25:21.314Z,19.11
2023-08-22T05:27:49.032Z,19.30
2023-08-22T05:30:16.680Z,19.51
2023-08-22T05:32:44.366Z,19.23
2023-08-22T05:35:12.394Z,19.48
2023-08-22T05:37:41.527Z,19.00
2023-08-22T05:40:10.464Z,19.14
2023-08-22T05:42:38.288Z,18.90
2023-08-22T05:45:07.167Z,18.98
2023-08-22T05:47:34.780Z,19.17
2023-08-22T05:50:02.401Z,19.39
2023-08-22T05:52:30.071Z,19.21
2023-08-22T05:54:59.024Z,19.05
2023-08-22T05:57:26.677Z,19.38
2023-08-22T05:59:54.285Z,19.79
2023-08-22T06:02:22.027Z,19.65
2023-08-22T06:04:49.877Z,19.51
2023-08-22T06:07:17.548Z,19.50
2023-08-22T06:09:45.243Z,19.31
2023-08-22T06:12:14.417Z,19.42
2023-08-22T06:14:42.227Z,19.15
2023-08-22T06:17:10.371Z,19.58
2023-08-22T06:19:38.025Z,19.82
2023-08-22T06:22:05.703Z,19.49
2023-08-22T06:24:33.350Z,19.88
2023-08-22T06:27:00.945Z,20.13
2023-08-22T06:29:29.933Z,20.25
2023-08-22T06:31:57.531Z,20.48
2023-08-22T06:34:25.216Z,20.55
2023-08-22T06:36:52.809Z,20.19
2023-08-22T06:39:21.014Z,20.52
2023-08-22T06:41:48.604Z,19.89
2023-08-22T06:44:16.258Z,20.12
2023-08-22T06:46:45.920Z,20.03
2023-08-22T06:49:13.576Z,20.46
2023-08-22T06:51:41.175Z,20.91
2023-08-22T06:54:08.843Z,20.65
2023-08-22T06:56:36.444Z,20.64
2023-08-22T06:59:04.180Z,20.73
2023-08-22T07:01:31.888Z,20.35
2023-08-22T07:04:14.384Z,20.50
2023-08-22T07:06:44.024Z,20.30
2023-08-22T07:09:11.756Z,21.11
2023-08-22T07:11:39.386Z,21.31
2023-08-22T07:14:07.503Z,21.59
2023-08-22T07:16:37.397Z,21.80
2023-08-22T07:19:06.569Z,21.87
2023-08-22T07:21:34.219Z,21.94
2023-08-22T07:24:01.838Z,21.89
2023-08-22T07:26:29.456Z,21.33
2023-08-22T07:28:57.089Z,20.51
2023-08-22T07:31:24.748Z,21.16
2023-08-22T07:33:52.419Z,20.52
2023-08-22T07:36:22.543Z,20.40
2023-08-22T07:38:50.359Z,20.68
2023-08-22T07:41:18.047Z,21.00
2023-08-22T07:43:45.951Z,21.17
2023-08-22T07:46:13.603Z,20.69
2023-08-22T07:48:41.243Z,21.76
2023-08-22T07:51:08.907Z,21.58
2023-08-22T07:53:37.929Z,22.15
2023-08-22T07:56:07.262Z,22.04
2023-08-22T07:58:35.162Z,22.50
2023-08-22T08:01:05.821Z,22.59
2023-08-22T08:03:33.956Z,22.30
2023-08-22T08:06:01.736Z,22.44
2023-08-22T08:08:29.349Z,21.51
2023-08-22T08:10:58.389Z,20.87
2023-08-22T08:13:26.020Z,20.96
2023-08-22T08:16:01.994Z,21.20
2023-08-22T08:18:30.010Z,21.45
2023-08-22T08:20:57.765Z,21.45
2023-08-22T08:23:25.519Z,22.67
2023-08-22T08:25:53.182Z,23.54
2023-08-22T08:28:22.155Z,23.70
2023-08-22T08:30:49.780Z,23.59
2023-08-22T08:33:17.442Z,23.44
2023-08-22T08:35:45.113Z,22.87
2023-08-22T08:38:12.728Z,24.44
2023-08-22T08:40:45.301Z,24.85
2023-08-22T08:43:13.510Z,23.60
2023-08-22T08:45:42.685Z,24.88
2023-08-22T08:48:10.606Z,25.68
2023-08-22T08:50:40.119Z,23.90
2023-08-22T08:53:08.220Z,24.90
2023-08-22T08:55:37.305Z,25.80
2023-08-22T08:58:05.408Z,24.15
2023-08-22T09:00:33.459Z,23.57
2023-08-22T09:03:02.906Z,23.13
2023-08-22T09:05:31.748Z,23.42
2023-08-22T09:08:16.238Z,23.86
2023-08-22T09:10:43.916Z,26.46
2023-08-22T09:13:11.556Z,26.89
2023-08-22T09:15:39.222Z,25.76
2023-08-22T09:18:08.445Z,26.90
2023-08-22T09:20:36.068Z,27.47
2023-08-22T09:23:03.718Z,28.29
2023-08-22T09:25:39.879Z,28.00
2023-08-22T09:28:11.191Z,27.99
2023-08-22T09:30:39.004Z,26.54
2023-08-22T09:33:07.987Z,28.26
2023-08-22T09:35:35.822Z,28.66
2023-08-22T09:38:11.208Z,27.80
2023-08-22T09:40:51.687Z,27.08
2023-08-22T09:43:21.263Z,26.23
2023-08-22T09:45:52.055Z,28.59
2023-08-22T09:48:26.611Z,29.31
2023-08-22T09:50:59.379Z,27.94
2023-08-22T09:53:28.327Z,27.00
2023-08-22T09:55:56.758Z,29.86
2023-08-22T09:58:27.944Z,28.37
2023-08-22T10:00:57.971Z,28.35
2023-08-22T10:03:27.819Z,27.16
2023-08-22T10:05:55.630Z,27.53
2023-08-22T10:08:23.329Z,28.85
2023-08-22T10:10:51.358Z,29.79
2023-08-22T10:13:22.434Z,28.40
2023-08-22T10:15:51.143Z,28.89
2023-08-22T10:18:18.928Z,26.06
2023-08-22T10:20:49.376Z,28.49
2023-08-22T10:23:17.410Z,29.33
2023-08-22T10:25:49.713Z,26.67
2023-08-22T10:28:17.924Z,28.63
2023-08-22T10:31:04.544Z,28.23
2023-08-22T10:33:35.943Z,27.55
2023-08-22T10:36:11.164Z,30.23
2023-08-22T10:38:57.395Z,26.26
2023-08-22T10:41:25.726Z,27.32
2023-08-22T10:43:57.774Z,28.62
2023-08-22T10:46:58.992Z,26.38
2023-08-22T10:49:30.523Z,29.55
2023-08-22T10:52:07.633Z,28.65
2023-08-22T10:54:35.477Z,26.91
2023-08-22T10:57:19.331Z,27.20
2023-08-22T11:00:07.383Z,29.15
2023-08-22T11:02:36.253Z,29.50
2023-08-22T11:05:05.644Z,31.21
2023-08-22T11:07:36.410Z,29.37
2023-08-22T11:10:05.188Z,31.30
2023-08-22T11:12:32.867Z,28.44
2023-08-22T11:15:00.503Z,30.57
2023-08-22T11:17:28.203Z,32.24
2023-08-22T11:19:58.643Z,32.85
2023-08-22T11:22:26.619Z,29.02
2023-08-22T11:24:55.744Z,27.15
2023-08-22T11:27:23.455Z,30.21
2023-08-22T11:29:52.214Z,30.77
2023-08-22T11:32:23.191Z,27.97
2023-08-22T11:34:51.670Z,28.21
2023-08-22T11:37:19.801Z,28.01
2023-08-22T11:39:48.585Z,29.21
2023-08-22T11:42:18.223Z,31.36
2023-08-22T11:45:00.820Z,28.01
2023-08-22T11:47:37.645Z,28.09
2023-08-22T11:50:05.991Z,29.37
2023-08-22T11:52:35.357Z,32.46
2023-08-22T11:55:07.899Z,33.46
2023-08-22T11:57:39.603Z,29.79
2023-08-22T12:00:10.056Z,31.68
2023-08-22T12:02:38.673Z,29.66
2023-08-22T12:05:07.087Z,30.34
2023-08-22T12:07:44.399Z,30.41
2023-08-22T12:10:13.695Z,29.30
2023-08-22T12:12:42.747Z,28.89
2023-08-22T12:15:10.795Z,29.27
2023-08-22T12:17:38.450Z,29.02
2023-08-22T12:20:07.445Z,29.67
2023-08-22T12:22:35.125Z,28.82
2023-08-22T12:25:02.790Z,28.66
2023-08-22T12:27:30.397Z,29.53
2023-08-22T12:29:59.358Z,27.72
2023-08-22T12:32:27.015Z,29.64
2023-08-22T12:34:54.613Z,30.20
2023-08-22T12:37:22.279Z,27.71
2023-08-22T12:39:49.972Z,28.48
2023-08-22T12:42:17.635Z,28.27
2023-08-22T12:44:45.242Z,31.78
2023-08-22T12:47:14.260Z,30.58
2023-08-22T12:49:41.950Z,31.78
2023-08-22T12:52:09.534Z,29.62
2023-08-22T12:54:37.140Z,28.93
2023-08-22T12:57:04.840Z,27.95
2023-08-22T12:59:32.843Z,27.97
2023-08-22T13:02:00.637Z,27.11
2023-08-22T13:04:29.717Z,28.01
2023-08-22T13:06:57.431Z,28.34
2023-08-22T13:09:25.098Z,27.48
2023-08-22T13:11:52.722Z,28.12
2023-08-22T13:14:20.332Z,27.81
2023-08-22T13:16:48.076Z,27.48
2023-08-22T13:19:15.651Z,27.25
2023-08-22T13:21:44.618Z,28.09
2023-08-22T13:24:12.222Z,27.48
2023-08-22T13:26:39.860Z,27.19
2023-08-22T13:29:07.542Z,26.59
2023-08-22T13:31:37.778Z,28.07
2023-08-22T13:34:05.504Z,28.18
2023-08-22T13:36:33.674Z,28.41
2023-08-22T13:39:02.670Z,27.04
2023-08-22T13:41:31.628Z,28.76
2023-08-22T13:43:59.293Z,27.40
2023-08-22T13:46:26.888Z,26.38
2023-08-22T13:48:54.545Z,27.91
2023-08-22T13:51:22.184Z,28.60
2023-08-22T13:53:49.822Z,26.44
2023-08-22T13:56:20.687Z,27.74
2023-08-22T13:58:48.387Z,29.09
2023-08-22T14:01:16.036Z,29.99
2023-08-22T14:03:43.712Z,29.16
2023-08-22T14:06:11.439Z,27.30
2023-08-22T14:08:39.034Z,27.31
2023-08-22T14:11:07.307Z,27.38
2023-08-22T14:13:36.583Z,27.44
2023-08-22T14:16:04.332Z,29.77
2023-08-22T14:18:32.046Z,30.03
2023-08-22T14:20:59.719Z,27.73
2023-08-22T14:23:27.323Z,29.92
2023-08-22T14:25:54.976Z,28.20
2023-08-22T14:28:22.573Z,27.15
2023-08-22T14:30:51.537Z,28.76
2023-08-22T14:33:19.180Z,28.53
2023-08-22T14:35:46.804Z,30.46
2023-08-22T14:38:14.383Z,29.33
2023-08-22T14:40:43.049Z,28.82
2023-08-22T14:43:10.612Z,29.10
2023-08-22T14:45:39.148Z,28.19
2023-08-22T14:48:08.794Z,28.62
2023-08-22T14:50:41.616Z,28.32
2023-08-22T14:53:13.256Z,27.32
2023-08-22T14:55:41.033Z,28.27
2023-08-22T14:58:12.395Z,28.20
2023-08-22T15:00:40.206Z,27.87
2023-08-22T15:03:11.180Z,27.81
2023-08-22T15:05:39.303Z,29.84
2023-08-22T15:08:07.551Z,30.00
2023-08-22T15:10:35.477Z,28.96
2023-08-22T15:13:03.139Z,27.90
2023-08-22T15:15:30.795Z,27.21
2023-08-22T15:17:58.476Z,28.66
2023-08-22T15:20:27.629Z,27.43
2023-08-22T15:22:55.628Z,26.84
2023-08-22T15:25:23.802Z,28.38
2023-08-22T15:27:51.456Z,26.37
2023-08-22T15:30:19.147Z,27.25
2023-08-22T15:32:46.820Z,26.80
2023-08-22T15:35:14.439Z,26.05
2023-08-22T15:37:43.399Z,27.72
2023-08-22T15:40:11.283Z,27.27
2023-08-22T15:42:38.911Z,26.84
2023-08-22T15:45:07.794Z,28.11
2023-08-22T15:47:35.512Z,26.37
2023-08-22T15:50:03.781Z,26.56
2023-08-22T15:52:40.703Z,25.84
2023-08-22T15:55:10.794Z,27.56
2023-08-22T15:57:38.388Z,28.21
2023-08-22T16:00:07.636Z,28.72
2023-08-22T16:02:35.244Z,27.33
2023-08-22T16:05:03.188Z,29.16
2023-08-22T16:07:30.863Z,27.16
2023-08-22T16:09:58.579Z,26.36
2023-08-22T16:12:27.570Z,27.63
2023-08-22T16:14:55.134Z,26.68
2023-08-22T16:17:22.761Z,27.30
2023-08-22T16:19:51.193Z,27.72
2023-08-22T16:22:19.033Z,28.15
2023-08-22T16:24:46.649Z,27.07
2023-08-22T16:27:23.483Z,26.92
2023-08-22T16:30:00.441Z,27.61
2023-08-22T16:32:28.050Z,28.02
2023-08-22T16:34:55.914Z,27.03
2023-08-22T16:37:23.594Z,26.62
2023-08-22T16:39:52.225Z,25.30
2023-08-22T16:42:19.920Z,27.43
2023-08-22T16:44:47.556Z,25.99
2023-08-22T16:47:16.499Z,25.32
2023-08-22T16:49:44.166Z,27.23
2023-08-22T16:52:11.825Z,28.25
2023-08-22T16:54:39.649Z,25.97
2023-08-22T16:57:07.617Z,26.45
2023-08-22T16:59:35.246Z,25.57
2023-08-22T17:02:04.451Z,24.87
2023-08-22T17:04:33.452Z,25.01
2023-08-22T17:07:02.866Z,26.78
2023-08-22T17:09:33.124Z,25.42
2023-08-22T17:12:00.772Z,25.11
2023-08-22T17:14:29.360Z,25.73
2023-08-22T17:16:57.014Z,26.97
2023-08-22T17:19:24.734Z,27.19
2023-08-22T17:21:53.720Z,27.56
2023-08-22T17:24:21.324Z,26.77
2023-08-22T17:26:50.929Z,25.54
2023-08-22T17:29:18.945Z,25.12
2023-08-22T17:31:46.576Z,26.28
2023-08-22T17:34:14.924Z,25.14
2023-08-22T17:36:42.557Z,25.41
2023-08-22T17:39:11.477Z,25.67
2023-08-22T17:41:39.128Z,24.65
2023-08-22T17:44:06.766Z,25.43
2023-08-22T17:46:34.552Z,26.36
2023-08-22T17:49:02.238Z,26.27
2023-08-22T17:51:29.915Z,24.89
2023-08-22T17:54:01.328Z,23.79
2023-08-22T17:56:30.260Z,23.11
2023-08-22T17:58:57.840Z,22.87
2023-08-22T18:01:25.598Z,22.10
2023-08-22T18:03:54.158Z,21.87
2023-08-22T18:06:21.925Z,21.65
2023-08-22T18:08:49.738Z,21.56
2023-08-22T18:11:17.438Z,21.39
2023-08-22T18:13:46.518Z,21.22
2023-08-22T18:16:14.256Z,20.98
2023-08-22T18:18:42.320Z,20.81
2023-08-22T18:21:11.793Z,20.73
2023-08-22T18:23:40.595Z,20.54
2023-08-22T18:26:09.718Z,20.38
2023-08-22T18:28:38.394Z,20.45
2023-08-22T18:31:12.397Z,20.18
2023-08-22T18:33:40.271Z,20.14
2023-08-22T18:36:17.808Z,19.97
2023-08-22T18:38:45.527Z,19.89
2023-08-22T18:41:13.407Z,19.68
2023-08-22T18:43:44.610Z,19.55
2023-08-22T18:46:14.134Z,19.48
2023-08-22T18:48:42.071Z,19.38
2023-08-22T18:51:09.790Z,19.22
2023-08-22T18:53:38.127Z,19.11
2023-08-22T18:56:09.062Z,19.07
2023-08-22T18:58:38.246Z,19.00
2023-08-22T19:01:06.328Z,18.93
2023-08-22T19:03:35.496Z,19.18
2023-08-22T19:06:04.328Z,19.07
2023-08-22T19:08:32.618Z,18.99
2023-08-22T19:11:04.233Z,18.97
2023-08-22T19:13:31.892Z,19.45
2023-08-22T19:15:59.533Z,20.12
2023-08-22T19:18:27.502Z,19.69
2023-08-22T19:20:56.526Z,18.91
2023-08-22T19:23:24.159Z,18.53
2023-08-22T19:25:51.838Z,18.40
2023-08-22T19:28:19.469Z,18.47
2023-08-22T19:30:47.114Z,18.23
2023-08-22T19:33:18.832Z,18.08
2023-08-22T19:35:47.829Z,18.06
2023-08-22T19:38:16.769Z,17.91
2023-08-22T19:40:46.162Z,17.84
2023-08-22T19:43:14.725Z,17.86
2023-08-22T19:45:42.401Z,17.81
2023-08-22T19:48:10.073Z,17.74
2023-08-22T19:50:37.755Z,17.63
2023-08-22T19:53:05.775Z,17.63
2023-08-22T19:55:34.784Z,17.52
2023-08-22T19:58:02.789Z,17.46
2023-08-22T20:00:30.452Z,17.67
2023-08-22T20:02:58.104Z,18.30
2023-08-22T20:05:28.496Z,18.29
2023-08-22T20:07:56.376Z,19.04
2023-08-22T20:10:24.158Z,19.10
2023-08-22T20:12:53.100Z,19.33
2023-08-22T20:15:20.782Z,19.40
2023-08-22T20:17:48.749Z,18.84
2023-08-22T20:20:16.789Z,18.22
2023-08-22T20:22:44.386Z,17.66
2023-08-22T20:25:11.992Z,17.36
2023-08-22T20:27:39.622Z,17.32
2023-08-22T20:30:11.301Z,17.14
2023-08-22T20:32:39.003Z,17.13
2023-08-22T20:35:07.354Z,17.36
2023-08-22T20:37:34.979Z,17.26
2023-08-22T20:40:02.665Z,17.72
2023-08-22T20:42:30.286Z,17.26
2023-08-22T20:44:57.981Z,16.93
2023-08-22T20:47:26.933Z,16.85
2023-08-22T20:49:55.918Z,16.97
2023-08-22T20:52:23.558Z,17.06
2023-08-22T20:54:51.205Z,17.24
2023-08-22T20:57:18.912Z,16.81
2023-08-22T20:59:46.647Z,17.28
2023-08-22T21:02:14.728Z,17.31
2023-08-22T21:04:43.673Z,16.77
2023-08-22T21:07:11.290Z,16.41
2023-08-22T21:09:38.963Z,16.57
2023-08-22T21:12:06.819Z,18.06
2023-08-22T21:14:34.638Z,18.04
2023-08-22T21:17:02.312Z,18.34
2023-08-22T21:19:30.033Z,18.27
2023-08-22T21:21:59.036Z,18.12
2023-08-22T21:24:42.087Z,17.18
2023-08-22T21:27:10.005Z,16.66
2023-08-22T21:29:37.809Z,17.13
2023-08-22T21:32:08.458Z,17.31
2023-08-22T21:34:36.403Z,17.10
2023-08-22T21:37:05.536Z,16.38
2023-08-22T21:39:33.187Z,16.21
2023-08-22T21:42:00.815Z,16.38
2023-08-22T21:44:28.450Z,15.98
2023-08-22T21:46:59.239Z,15.86
2023-08-22T21:49:26.855Z,15.87
2023-08-22T21:51:54.734Z,15.99
2023-08-22T21:54:23.926Z,16.72
2023-08-22T21:56:51.628Z,16.99
2023-08-22T21:59:19.316Z,17.51
2023-08-22T22:01:47.054Z,17.60
2023-08-22T22:04:14.714Z,17.73
2023-08-22T22:06:42.337Z,17.88
2023-08-22T22:09:09.973Z,17.73
2023-08-22T22:11:39.005Z,17.87
2023-08-22T22:14:06.673Z,17.39
2023-08-22T22:16:44.156Z,16.97
2023-08-22T22:19:12.786Z,17.30
2023-08-22T22:21:40.448Z,17.13
2023-08-22T22:24:08.233Z,17.24
2023-08-22T22:26:36.198Z,16.84
2023-08-22T22:29:05.183Z,17.18
2023-08-22T22:31:32.913Z,17.56
2023-08-22T22:34:01.379Z,17.56
2023-08-22T22:36:28.991Z,16.78
2023-08-22T22:38:56.618Z,16.48
2023-08-22T22:41:24.252Z,16.13
2023-08-22T22:43:51.866Z,16.02
2023-08-22T22:46:20.824Z,15.99
2023-08-22T22:48:48.461Z,15.81
2023-08-22T22:51:16.087Z,15.82
2023-08-22T22:53:43.703Z,15.79
2023-08-22T22:56:11.330Z,16.11
2023-08-22T22:58:40.060Z,16.24
2023-08-22T23:01:09.745Z,15.94
2023-08-22T23:03:38.872Z,16.33
2023-08-22T23:06:08.376Z,16.36
2023-08-22T23:08:36.114Z,16.43
2023-08-22T23:11:04.631Z,15.77
2023-08-22T23:13:32.949Z,15.48
2023-08-22T23:16:00.568Z,15.19
2023-08-22T23:18:28.191Z,15.20
2023-08-22T23:20:57.177Z,15.33
2023-08-22T23:23:24.788Z,15.28
2023-08-22T23:25:53.044Z,15.20
2023-08-22T23:28:20.671Z,15.07
2023-08-22T23:30:48.275Z,15.05
2023-08-22T23:33:15.945Z,15.13
2023-08-22T23:35:43.590Z,15.17
2023-08-22T23:38:12.664Z,14.94
2023-08-22T23:40:40.702Z,14.84
2023-08-22T23:43:08.351Z,14.98
2023-08-22T23:45:35.970Z,15.27
2023-08-22T23:48:03.786Z,15.00
2023-08-22T23:50:33.956Z,14.76
2023-08-22T23:53:02.887Z,14.74
2023-08-22T23:55:31.836Z,14.70
2023-08-22T23:58:00.998Z,14.62
